Time;durP1;ratioP1;P1;durP2;ratioP2;P2;SDS_P1;SDS_P2;PMS_P1;PMS_P2;Temp;Humidity;BMP_temperature;BMP_pressure;BME280_temperature;BME280_humidity;BME280_pressure;Samples;Min_cycle;Max_cycle;Signal;HPM_P1;HPM_P2
2021/04/17 00:01:47;;;;;;;2.63;1.25;;;;;;;19.03;48.43;102977.34;5067419;28;20393;-69
2021/04/17 00:04:14;;;;;;;1.67;0.73;;;;;;;19.03;48.26;102973.81;5050629;28;20035;-69
2021/04/17 00:06:40;;;;;;;2.08;1.17;;;;;;;19.04;48.34;102970.34;5071458;28;20033;-69
2021/04/17 00:09:09;;;;;;;1.90;0.95;;;;;;;19.01;48.02;102963.28;5068206;28;20140;-69
2021/04/17 00:11:34;;;;;;;1.00;0.77;;;;;;;19.01;48.17;102965.91;5070883;28;20047;-69
2021/04/17 00:14:00;;;;;;;1.65;0.70;;;;;;;19.01;48.13;102967.66;5062097;28;20063;-69
2021/04/17 00:16:26;;;;;;;1.67;1.00;;;;;;;19.04;48.25;102975.59;5045899;28;20056;-69
2021/04/17 00:18:51;;;;;;;1.70;0.80;;;;;;;19.03;48.30;102973.81;5049973;28;20033;-69
2021/04/17 00:21:18;;;;;;;1.83;0.88;;;;;;;19.04;48.13;102972.97;5067200;28;20025;-69
2021/04/17 00:23:44;;;;;;;1.55;0.93;;;;;;;19.03;48.34;102981.69;5058041;28;20068;-69
2021/04/17 00:26:09;;;;;;;1.75;0.90;;;;;;;18.99;48.22;102977.19;5036627;28;20068;-69
2021/04/17 00:28:34;;;;;;;2.20;0.70;;;;;;;19.00;48.33;102974.63;5047468;28;20029;-69
2021/04/17 00:31:00;;;;;;;0.93;0.77;;;;;;;18.98;48.30;102971.06;5063894;28;20043;-69
2021/04/17 00:33:25;;;;;;;1.25;0.98;;;;;;;19.01;48.24;102978.13;5073819;28;20060;-69
2021/04/17 00:35:50;;;;;;;1.75;0.80;;;;;;;18.94;48.30;102964.00;5067600;28;20448;-69
2021/04/17 00:38:16;;;;;;;1.60;1.00;;;;;;;18.92;48.36;102961.31;5048705;28;20057;-69
2021/04/17 00:40:41;;;;;;;1.27;0.90;;;;;;;18.95;48.10;102968.41;5066142;28;20021;-69
2021/04/17 00:43:07;;;;;;;1.60;1.08;;;;;;;18.99;48.36;102978.09;5030514;28;20036;-69
2021/04/17 00:45:33;;;;;;;1.48;0.80;;;;;;;18.95;48.19;102964.88;5053465;28;20034;-69
2021/04/17 00:47:58;;;;;;;1.33;0.70;;;;;;;18.89;48.20;102950.75;5068541;28;20483;-69
2021/04/17 00:50:25;;;;;;;1.65;1.00;;;;;;;18.92;48.18;102963.94;5051323;28;20044;-69
2021/04/17 00:52:51;;;;;;;0.80;0.63;;;;;;;18.96;48.36;102967.50;5053493;28;21824;-69
2021/04/17 00:55:17;;;;;;;1.40;1.02;;;;;;;18.92;48.33;102969.19;5062805;28;20032;-69
2021/04/17 00:57:42;;;;;;;2.30;1.13;;;;;;;18.95;48.32;102968.41;5068119;28;20020;-69
2021/04/17 01:00:08;;;;;;;0.82;0.70;;;;;;;18.88;48.15;102955.94;5067644;28;20048;-69
2021/04/17 01:02:39;;;;;;;1.83;0.80;;;;;;;18.91;48.19;102964.78;5070721;28;20063;-69
2021/04/17 01:05:07;;;;;;;1.90;1.23;;;;;;;18.91;48.16;102959.53;5068641;28;20035;-69
2021/04/17 01:07:37;;;;;;;1.33;0.95;;;;;;;18.93;48.29;102964.84;5033721;28;20062;-69
2021/04/17 01:10:06;;;;;;;2.45;1.00;;;;;;;18.94;48.22;102963.09;5058811;28;20041;-68
2021/04/17 01:12:34;;;;;;;1.48;1.10;;;;;;;18.92;48.17;102956.09;5058716;28;20419;-69
2021/04/17 01:15:03;;;;;;;2.33;1.45;;;;;;;18.91;48.30;102953.41;5045091;28;20480;-69
2021/04/17 01:17:30;;;;;;;1.63;1.00;;;;;;;18.83;48.19;102937.47;5044799;28;20021;-69
2021/04/17 01:20:18;;;;;;;1.80;1.13;;;;;;;18.89;48.14;102950.75;5054263;28;20474;-69
2021/04/17 01:23:12;;;;;;;1.65;0.70;;;;;;;18.89;48.27;102953.38;5065804;28;20041;-69
2021/04/17 01:26:05;;;;;;;1.30;0.95;;;;;;;18.90;48.40;102959.50;5055244;28;20033;-69
2021/04/17 01:28:38;;;;;;;1.33;0.93;;;;;;;18.86;48.26;102948.03;5050312;28;20394;-69
2021/04/17 01:31:06;;;;;;;1.83;0.93;;;;;;;18.89;48.18;102953.38;5047033;28;20036;-69
2021/04/17 01:33:34;;;;;;;1.20;0.93;;;;;;;18.90;48.37;102956.88;5046810;28;20131;-69
2021/04/17 01:36:05;;;;;;;1.05;0.70;;;;;;;18.88;48.25;102958.56;5045103;28;20012;-69
2021/04/17 01:38:34;;;;;;;1.13;0.60;;;;;;;18.88;48.33;102954.22;5047784;28;20024;-69
2021/04/17 01:41:08;;;;;;;1.00;0.70;;;;;;;18.83;48.10;102950.56;5069201;28;20079;-69
2021/04/17 01:43:34;;;;;;;1.40;0.77;;;;;;;18.87;48.15;102947.19;5059882;28;20082;-69
2021/04/17 01:46:06;;;;;;;1.60;0.82;;;;;;;18.87;48.21;102959.41;5036328;28;20494;-69
2021/04/17 01:48:32;;;;;;;1.55;1.45;;;;;;;18.85;48.08;102955.84;5046149;28;20028;-69
2021/04/17 01:51:00;;;;;;;1.05;0.60;;;;;;;18.85;48.07;102953.22;5055604;28;20390;-75
2021/04/17 01:53:29;;;;;;;1.48;0.70;;;;;;;18.78;48.25;102944.34;5069845;28;20056;-75
2021/04/17 01:55:55;;;;;;;1.73;0.70;;;;;;;18.77;47.99;102942.56;5052911;28;20024;-74
2021/04/17 01:58:24;;;;;;;0.95;0.63;;;;;;;18.80;48.03;102945.28;5056492;28;20486;-75
2021/04/17 02:00:55;;;;;;;0.80;0.50;;;;;;;18.82;48.22;102943.59;5051627;28;20552;-74
2021/04/17 02:03:21;;;;;;;1.50;1.00;;;;;;;18.81;48.16;102944.44;5059766;28;21910;-74
2021/04/17 02:05:52;;;;;;;1.42;1.15;;;;;;;18.83;48.21;102947.06;5066776;28;20028;-74
2021/04/17 02:08:17;;;;;;;1.67;1.08;;;;;;;18.82;48.23;102943.59;5074372;28;20063;-74
2021/04/17 02:10:44;;;;;;;1.75;0.80;;;;;;;18.80;48.15;102947.00;5074165;28;20083;-74
2021/04/17 02:13:11;;;;;;;0.75;0.70;;;;;;;18.81;48.13;102948.78;5052946;28;20032;-75
2021/04/17 02:15:38;;;;;;;0.85;0.70;;;;;;;18.77;48.25;102945.19;5069699;28;20052;-75
2021/04/17 02:18:44;;;;;;;1.67;0.82;;;;;;;18.79;48.32;102935.63;5050137;28;20025;-75
2021/04/17 02:21:14;;;;;;;2.17;0.95;;;;;;;18.78;47.99;102939.09;5036073;28;20119;-76
2021/04/17 02:23:40;;;;;;;0.88;0.63;;;;;;;18.80;48.18;102947.00;5068384;28;20089;-75
2021/04/17 02:26:06;;;;;;;0.88;0.80;;;;;;;18.77;48.25;102939.03;5056109;28;20040;-75
2021/04/17 02:28:32;;;;;;;2.75;0.88;;;;;;;18.75;47.90;102938.13;5021138;28;20021;-75
2021/04/17 02:31:02;;;;;;;1.08;0.73;;;;;;;18.76;48.27;102940.78;5045001;28;20025;-75
2021/04/17 02:33:27;;;;;;;1.63;1.00;;;;;;;18.77;48.29;102941.66;5063371;28;20051;-74
2021/04/17 02:35:53;;;;;;;3.65;1.08;;;;;;;18.78;48.17;102939.09;5056273;28;20470;-75
2021/04/17 02:38:18;;;;;;;1.25;1.10;;;;;;;18.79;48.19;102938.25;5056387;28;20056;-75
2021/04/17 02:40:43;;;;;;;1.15;0.70;;;;;;;18.76;48.10;102935.53;5043459;28;20052;-69
2021/04/17 02:43:09;;;;;;;1.05;0.68;;;;;;;18.72;48.15;102925.81;5062319;28;20032;-69
2021/04/17 02:45:34;;;;;;;2.30;1.10;;;;;;;18.76;48.28;102932.03;5068090;28;20056;-69
2021/04/17 02:48:00;;;;;;;0.77;0.70;;;;;;;18.71;48.23;102924.03;5046143;28;20032;-70
2021/04/17 02:50:25;;;;;;;3.83;0.85;;;;;;;18.67;48.39;102909.09;5015129;28;20052;-69
2021/04/17 02:52:51;;;;;;;1.40;0.88;;;;;;;18.75;48.18;102923.28;5041594;28;20477;-69
2021/04/17 02:55:18;;;;;;;1.73;0.88;;;;;;;18.74;48.17;102924.13;5069818;28;20033;-69
2021/04/17 02:57:45;;;;;;;1.13;0.75;;;;;;;18.75;48.29;102923.28;5047154;28;20024;-69
2021/04/17 03:00:13;;;;;;;1.30;0.93;;;;;;;18.74;48.29;102918.88;5042518;28;20039;-69
2021/04/17 03:02:38;;;;;;;1.40;0.80;;;;;;;18.73;48.23;102922.34;5064460;28;20106;-69
2021/04/17 03:05:05;;;;;;;1.00;0.77;;;;;;;18.70;48.29;102913.50;5050586;28;20460;-69
2021/04/17 03:07:31;;;;;;;0.90;0.80;;;;;;;18.69;48.31;102912.66;5060909;28;20436;-69
2021/04/17 03:09:57;;;;;;;1.55;0.90;;;;;;;18.72;48.19;102917.06;5062097;28;20097;-69
2021/04/17 03:12:22;;;;;;;1.13;0.70;;;;;;;18.69;48.24;102914.38;5061974;28;20119;-69
2021/04/17 03:14:47;;;;;;;1.60;0.65;;;;;;;18.64;48.42;102897.63;5039272;28;20110;-69
2021/04/17 03:17:14;;;;;;;1.13;0.77;;;;;;;18.68;48.33;102907.34;5037391;28;20028;-69
2021/04/17 03:19:40;;;;;;;1.38;0.93;;;;;;;18.71;48.39;102912.66;5048890;28;20058;-69
2021/04/17 03:22:06;;;;;;;0.95;0.70;;;;;;;18.68;48.13;102913.50;5048957;28;20458;-69
2021/04/17 03:24:32;;;;;;;1.08;0.77;;;;;;;18.70;48.34;102916.13;5025047;28;20085;-69
2021/04/17 03:26:57;;;;;;;1.10;0.70;;;;;;;18.69;48.21;102917.00;5060846;28;20032;-69
2021/04/17 03:29:23;;;;;;;0.95;0.70;;;;;;;18.66;48.28;102909.03;5031025;28;20029;-69
2021/04/17 03:31:48;;;;;;;1.73;1.10;;;;;;;18.62;48.30;102902.81;5033549;28;20037;-69
2021/04/17 03:34:13;;;;;;;1.48;0.90;;;;;;;18.65;48.17;102915.13;5063093;28;20043;-69
2021/04/17 03:36:39;;;;;;;1.92;1.05;;;;;;;18.66;48.35;102915.19;5037872;28;20036;-69
2021/04/17 03:39:05;;;;;;;2.15;1.05;;;;;;;18.65;48.27;102913.41;5066563;28;20431;-69
2021/04/17 03:41:30;;;;;;;1.52;0.73;;;;;;;18.63;48.29;102907.22;5064563;28;20092;-69
2021/04/17 03:43:56;;;;;;;1.27;0.90;;;;;;;18.66;48.30;102917.78;5046384;28;20047;-69
2021/04/17 03:46:22;;;;;;;0.88;0.70;;;;;;;18.68;48.20;102921.34;5053576;28;20398;-69
2021/04/17 03:48:47;;;;;;;0.85;0.60;;;;;;;18.60;48.36;102909.75;5045824;28;20425;-69
2021/04/17 03:51:13;;;;;;;2.45;1.05;;;;;;;18.66;48.39;102922.16;5055744;28;20089;-69
2021/04/17 03:53:38;;;;;;;2.30;1.23;;;;;;;18.65;48.26;102917.75;5044145;28;20417;-70
2021/04/17 03:56:04;;;;;;;1.33;0.77;;;;;;;18.64;48.29;102924.72;5064294;28;20032;-69
2021/04/17 03:58:29;;;;;;;1.38;0.98;;;;;;;18.65;48.40;102916.03;5047349;28;20028;-69
2021/04/17 04:00:54;;;;;;;2.33;0.80;;;;;;;18.58;48.26;102906.19;5056477;28;20029;-69
2021/04/17 04:03:20;;;;;;;1.33;0.80;;;;;;;18.59;48.57;102907.97;5018632;28;20390;-69
2021/04/17 04:05:45;;;;;;;1.38;1.13;;;;;;;18.64;48.34;102916.88;5044182;28;20040;-69
2021/04/17 04:08:11;;;;;;;1.30;0.80;;;;;;;18.60;48.36;102907.13;5066693;28;20474;-69
2021/04/17 04:10:36;;;;;;;0.88;0.80;;;;;;;18.63;48.29;102912.47;5036714;28;20056;-70
2021/04/17 04:13:01;;;;;;;2.00;1.15;;;;;;;18.62;48.36;102912.41;5060204;28;20037;-69
2021/04/17 04:15:27;;;;;;;0.85;0.70;;;;;;;18.62;48.30;102908.06;5071895;28;20035;-69
2021/04/17 04:17:52;;;;;;;1.95;0.77;;;;;;;18.63;48.37;102916.81;5045978;28;20031;-69
2021/04/17 04:20:18;;;;;;;1.58;0.88;;;;;;;18.62;48.38;102915.94;5070797;28;20029;-69
2021/04/17 04:22:43;;;;;;;1.10;0.73;;;;;;;18.57;48.38;102907.00;5071784;28;20120;-69
2021/04/17 04:25:09;;;;;;;1.35;0.70;;;;;;;18.61;48.29;102911.53;5016875;28;20037;-69
2021/04/17 04:27:36;;;;;;;1.85;0.80;;;;;;;18.52;48.26;102903.41;5064678;28;20471;-75
2021/04/17 04:30:07;;;;;;;1.70;0.98;;;;;;;18.59;48.30;102912.31;5047770;28;20056;-69
2021/04/17 04:32:33;;;;;;;0.63;0.50;;;;;;;18.52;48.36;102901.66;5070878;28;20024;-69
2021/04/17 04:34:58;;;;;;;1.10;0.65;;;;;;;18.43;48.43;102890.06;5027605;28;20483;-69
2021/04/17 04:37:23;;;;;;;1.35;0.73;;;;;;;18.59;48.30;102917.56;5053079;28;20104;-69
2021/04/17 04:39:49;;;;;;;1.17;0.88;;;;;;;18.52;48.31;102909.53;5045946;28;20075;-69
2021/04/17 04:42:14;;;;;;;1.15;0.80;;;;;;;18.57;48.35;102923.63;5067203;28;20029;-69
2021/04/17 04:44:39;;;;;;;1.88;1.00;;;;;;;18.58;48.24;102929.78;5072960;28;20025;-69
2021/04/17 04:47:05;;;;;;;1.77;0.98;;;;;;;18.54;48.31;102920.03;5068104;28;20045;-69
2021/04/17 04:49:30;;;;;;;2.10;0.90;;;;;;;18.58;48.21;102927.16;5032395;28;20028;-70
2021/04/17 04:51:56;;;;;;;2.03;0.88;;;;;;;18.52;48.37;102922.63;5048017;28;20075;-69
2021/04/17 04:54:21;;;;;;;3.45;1.23;;;;;;;18.55;48.27;102927.06;5045214;28;20074;-69
2021/04/17 04:56:47;;;;;;;2.47;0.98;;;;;;;18.55;48.61;102925.34;5039804;28;20032;-69
2021/04/17 04:59:12;;;;;;;1.40;1.10;;;;;;;18.54;48.34;102920.03;5045849;28;20109;-69
2021/04/17 05:01:37;;;;;;;1.40;0.63;;;;;;;18.52;48.11;102917.38;5065894;28;20033;-69
2021/04/17 05:04:03;;;;;;;2.20;1.00;;;;;;;18.49;48.18;102913.78;5049203;28;20040;-69
2021/04/17 05:06:28;;;;;;;0.88;0.52;;;;;;;18.51;48.36;102914.72;5030348;28;20035;-69
2021/04/17 05:08:54;;;;;;;1.65;0.98;;;;;;;18.55;48.39;102927.94;5040476;28;20029;-69
2021/04/17 05:11:19;;;;;;;1.60;0.85;;;;;;;18.54;48.37;102922.66;5048125;28;20124;-69
2021/04/17 05:13:44;;;;;;;1.75;0.93;;;;;;;18.52;48.32;102917.38;5065962;28;20028;-69
2021/04/17 05:16:10;;;;;;;1.00;0.70;;;;;;;18.55;48.29;102913.97;5050913;28;20069;-69
2021/04/17 05:18:35;;;;;;;1.40;0.80;;;;;;;18.49;48.21;102911.16;5046400;28;20100;-69
2021/04/17 05:21:01;;;;;;;1.50;1.02;;;;;;;18.50;48.24;102910.31;5054403;28;20139;-70
2021/04/17 05:23:26;;;;;;;1.17;0.73;;;;;;;18.57;48.46;102922.72;5041963;28;20044;-71
2021/04/17 05:25:52;;;;;;;1.38;1.10;;;;;;;18.48;48.36;102909.38;5068159;28;20082;-70
2021/04/17 05:28:17;;;;;;;1.95;1.35;;;;;;;18.52;48.29;102912.13;5054782;28;20033;-70
2021/04/17 05:30:43;;;;;;;3.10;1.10;;;;;;;18.57;48.25;102917.50;5040649;28;20028;-70
2021/04/17 05:33:08;;;;;;;1.20;0.85;;;;;;;18.59;48.31;102917.56;5050542;28;20436;-70
2021/04/17 05:35:33;;;;;;;1.00;0.70;;;;;;;18.47;48.50;102910.22;5051377;28;20036;-70
2021/04/17 05:37:59;;;;;;;3.15;0.90;;;;;;;18.59;48.33;102923.69;5069750;28;20029;-70
2021/04/17 05:40:25;;;;;;;2.28;0.88;;;;;;;18.57;48.47;102920.09;5067524;28;20017;-70
2021/04/17 05:42:50;;;;;;;1.63;0.98;;;;;;;18.59;48.49;102926.31;5051280;28;20501;-70
2021/04/17 05:45:16;;;;;;;1.42;0.80;;;;;;;18.60;48.46;102922.84;5044666;28;20025;-69
2021/04/17 05:47:41;;;;;;;2.83;1.02;;;;;;;18.56;48.69;102915.75;5061340;28;20039;-69
2021/04/17 05:50:07;;;;;;;1.42;0.60;;;;;;;18.52;48.61;102909.53;5039234;28;20035;-69
2021/04/17 05:52:32;;;;;;;2.13;0.90;;;;;;;18.55;48.95;102917.47;5051673;28;20032;-70
2021/04/17 05:54:58;;;;;;;1.50;0.90;;;;;;;18.57;48.84;102904.38;5037222;28;20031;-70
2021/04/17 05:57:23;;;;;;;1.83;0.77;;;;;;;18.59;48.90;102907.09;5041259;28;20391;-70
2021/04/17 05:59:48;;;;;;;1.45;0.73;;;;;;;18.63;49.09;102908.94;5063021;28;20479;-69
2021/04/17 06:02:14;;;;;;;2.33;1.05;;;;;;;18.57;48.68;102904.38;5066849;28;20024;-70
2021/04/17 06:04:39;;;;;;;1.05;0.68;;;;;;;18.61;48.89;102908.91;5042676;28;20040;-70
2021/04/17 06:07:04;;;;;;;1.50;0.85;;;;;;;18.66;48.75;102915.19;5052273;28;20628;-70
2021/04/17 06:09:30;;;;;;;2.65;0.85;;;;;;;18.72;48.91;102914.44;5063161;28;20051;-70
2021/04/17 06:11:56;;;;;;;1.75;0.80;;;;;;;18.69;48.90;102898.66;5058617;28;20025;-76
2021/04/17 06:14:22;;;;;;;1.50;0.93;;;;;;;18.77;48.62;102910.22;5056229;28;20017;-75
2021/04/17 06:16:47;;;;;;;1.50;0.90;;;;;;;18.81;48.72;102917.31;5055188;28;20384;-75
2021/04/17 06:19:13;;;;;;;1.42;0.90;;;;;;;18.80;48.66;102908.56;5045218;28;20429;-75
2021/04/17 06:21:38;;;;;;;1.02;0.60;;;;;;;18.82;48.62;102911.25;5028187;28;20470;-75
2021/04/17 06:24:04;;;;;;;1.35;0.80;;;;;;;18.90;48.53;102921.06;5036680;28;20048;-77
2021/04/17 06:26:30;;;;;;;1.33;0.70;;;;;;;18.93;48.45;102917.66;5067810;28;20495;-75
2021/04/17 06:28:55;;;;;;;1.52;0.80;;;;;;;18.91;48.66;102914.09;5022485;28;20044;-76
2021/04/17 06:31:20;;;;;;;1.25;1.05;;;;;;;18.98;48.42;102920.38;5048135;28;20044;-76
2021/04/17 06:33:46;;;;;;;1.42;0.80;;;;;;;18.97;48.55;102909.00;5035998;28;20037;-76
2021/04/17 06:36:11;;;;;;;3.45;0.90;;;;;;;18.97;48.40;102906.38;5045560;28;20503;-76
2021/04/17 06:38:37;;;;;;;1.75;0.95;;;;;;;19.05;48.46;102917.97;5063966;28;20024;-75
2021/04/17 06:41:02;;;;;;;2.10;0.90;;;;;;;19.02;48.48;102903.88;5073664;28;20028;-75
2021/04/17 06:43:34;;;;;;;1.00;0.68;;;;;;;19.05;48.44;102909.19;5056172;28;20093;-75
2021/04/17 06:46:02;;;;;;;1.20;0.95;;;;;;;19.12;48.37;102919.88;5047225;28;20028;-75
2021/04/17 06:48:29;;;;;;;1.23;0.88;;;;;;;19.14;48.48;102920.81;5036215;28;20052;-76
2021/04/17 06:50:54;;;;;;;1.02;0.88;;;;;;;19.13;48.52;102915.50;5050095;28;20025;-75
2021/04/17 06:53:21;;;;;;;2.08;0.90;;;;;;;19.20;48.45;102917.47;5073963;28;20046;-76
2021/04/17 06:55:53;;;;;;;0.98;0.80;;;;;;;19.21;48.47;102916.63;5074050;28;20482;-76
2021/04/17 06:58:19;;;;;;;0.65;0.57;;;;;;;19.17;48.73;102912.13;5074228;28;20028;-76
2021/04/17 07:00:48;;;;;;;1.05;0.63;;;;;;;19.25;48.52;102926.31;5038911;28;20239;-77
2021/04/17 07:03:15;;;;;;;1.27;1.02;;;;;;;19.19;48.73;102916.56;5051259;28;20425;-75
2021/04/17 07:05:41;;;;;;;1.25;0.85;;;;;;;19.22;48.42;102923.59;5067687;28;20437;-76
2021/04/17 07:08:06;;;;;;;5.65;1.48;;;;;;;19.17;48.68;102896.41;5032867;28;20045;-76
2021/04/17 07:10:32;;;;;;;2.25;0.95;;;;;;;19.23;48.73;102910.53;5051128;28;20086;-76
2021/04/17 07:13:12;;;;;;;2.20;1.17;;;;;;;19.30;48.56;102919.47;5074390;28;20082;-76
2021/04/17 07:15:39;;;;;;;3.20;1.33;;;;;;;19.28;48.48;102908.91;5065200;28;20555;-69
2021/04/17 07:18:37;;;;;;;2.05;0.95;;;;;;;19.33;48.57;102919.53;5059585;28;20017;-69
2021/04/17 07:21:14;;;;;;;3.78;0.85;;;;;;;19.34;48.56;102916.06;5002979;28;20052;-70
2021/04/17 07:23:42;;;;;;;1.90;0.80;;;;;;;19.28;48.75;102905.41;5064149;28;20021;-75
2021/04/17 07:26:18;;;;;;;3.03;1.13;;;;;;;19.27;48.13;102901.00;5055349;28;20021;-75
2021/04/17 07:29:06;;;;;;;3.90;1.20;;;;;;;19.39;48.04;102919.66;5050093;28;20123;-73
2021/04/17 07:31:33;;;;;;;2.70;1.08;;;;;;;19.41;48.34;102915.34;5053345;28;20391;-75
2021/04/17 07:34:16;;;;;;;4.82;1.92;;;;;;;19.44;48.42;102918.06;5053511;28;20029;-75
2021/04/17 07:36:49;;;;;;;4.53;1.50;;;;;;;19.45;48.83;102909.34;5072058;28;20020;-74
2021/04/17 07:39:29;;;;;;;3.63;1.48;;;;;;;19.45;48.99;102911.97;5055420;28;20107;-75
2021/04/17 07:42:16;;;;;;;5.65;3.17;;;;;;;19.49;49.33;102908.56;5061734;28;20029;-75
2021/04/17 07:44:44;;;;;;;4.30;1.60;;;;;;;19.51;49.42;102916.47;5060177;28;20390;-76
2021/04/17 07:47:10;;;;;;;5.35;1.73;;;;;;;19.49;49.30;102913.81;5058936;28;20021;-75
2021/04/17 07:49:37;;;;;;;4.55;1.52;;;;;;;19.49;49.15;102908.56;5075507;28;20154;-76
2021/04/17 07:52:12;;;;;;;2.45;1.35;;;;;;;19.46;49.26;102900.63;5073158;28;20028;-76
2021/04/17 07:55:01;;;;;;;3.67;1.83;;;;;;;19.53;49.32;102906.91;5063961;28;20047;-75
2021/04/17 07:57:38;;;;;;;4.82;1.90;;;;;;;19.48;49.24;102892.75;5052117;28;20550;-75
2021/04/17 08:00:08;;;;;;;3.33;1.90;;;;;;;19.51;49.15;102901.63;5044103;28;20466;-75
2021/04/17 08:02:34;;;;;;;5.00;1.90;;;;;;;19.54;49.25;102911.31;5044512;28;20052;-74
2021/04/17 08:05:00;;;;;;;6.05;2.13;;;;;;;19.55;49.16;102908.72;5073296;28;20030;-78
2021/04/17 08:07:27;;;;;;;4.68;1.98;;;;;;;19.54;49.41;102903.44;5063955;28;20036;-75
2021/04/17 08:09:57;;;;;;;3.05;1.70;;;;;;;19.56;49.16;102907.00;5075371;28;20071;-74
2021/04/17 08:12:24;;;;;;;5.80;1.70;;;;;;;19.51;49.04;102898.13;5068832;28;20029;-74
2021/04/17 08:14:49;;;;;;;6.05;1.80;;;;;;;19.51;49.12;102904.25;5057249;28;20055;-70
2021/04/17 08:17:15;;;;;;;3.65;1.95;;;;;;;19.54;49.10;102909.56;5068481;28;20410;-69
2021/04/17 08:19:40;;;;;;;6.85;1.80;;;;;;;19.56;49.17;102912.25;5052683;28;20040;-70
2021/04/17 08:22:06;;;;;;;3.10;1.67;;;;;;;19.53;49.13;102905.19;5073383;28;20043;-69
2021/04/17 08:24:32;;;;;;;3.55;1.55;;;;;;;19.53;49.17;102905.19;5073671;28;20115;-70
2021/04/17 08:27:00;;;;;;;5.63;1.60;;;;;;;19.52;49.15;102908.66;5050455;28;20025;-70
2021/04/17 08:29:52;;;;;;;3.42;2.17;;;;;;;19.53;49.01;102907.81;5053771;28;20055;-70
2021/04/17 08:32:35;;;;;;;3.78;1.50;;;;;;;19.51;49.07;102904.25;5041506;28;20036;-70
2021/04/17 08:35:04;;;;;;;3.42;1.80;;;;;;;19.49;48.97;102902.44;5053889;28;20378;-69
2021/04/17 08:37:32;;;;;;;3.88;1.88;;;;;;;19.53;48.94;102907.81;5072406;28;20032;-69
2021/04/17 08:39:58;;;;;;;3.92;1.88;;;;;;;19.51;49.20;102908.59;5074468;28;20036;-69
2021/04/17 08:42:45;;;;;;;3.20;1.35;;;;;;;19.47;49.12;102902.41;5054615;28;20033;-73
2021/04/17 08:45:18;;;;;;;2.30;1.58;;;;;;;19.44;49.07;102891.81;5053622;28;20020;-74
2021/04/17 08:47:54;;;;;;;4.55;1.80;;;;;;;19.49;48.87;102900.69;5072240;28;20116;-74
2021/04/17 08:50:25;;;;;;;2.88;1.60;;;;;;;19.51;48.96;102903.38;5070119;28;20486;-75
2021/04/17 08:53:04;;;;;;;4.20;1.67;;;;;;;19.47;48.85;102902.41;5071660;28;20135;-73
2021/04/17 08:55:50;;;;;;;3.78;1.92;;;;;;;19.53;49.07;102899.03;5058383;28;20029;-80
2021/04/17 08:58:23;;;;;;;4.10;2.50;;;;;;;19.55;48.87;102899.97;5038475;28;20025;-74
2021/04/17 09:00:48;;;;;;;4.50;1.90;;;;;;;19.55;48.98;102898.22;5055738;28;20028;-75
2021/04/17 09:03:39;;;;;;;3.83;1.73;;;;;;;19.52;49.29;102906.03;5044284;28;20020;-76
2021/04/17 09:06:09;;;;;;;7.00;1.90;;;;;;;19.52;49.18;102910.38;5044008;28;20039;-73
2021/04/17 09:08:39;;;;;;;2.83;1.50;;;;;;;19.42;49.04;102890.00;5049422;28;20108;-75
2021/04/17 09:11:43;;;;;;;2.65;1.55;;;;;;;19.49;49.22;102900.69;5066301;28;20051;-75
2021/04/17 09:14:29;;;;;;;3.97;1.90;;;;;;;19.49;49.15;102903.31;5050006;28;20090;-71
2021/04/17 09:16:57;;;;;;;7.22;2.28;;;;;;;19.51;49.26;102906.88;5064217;28;20043;-69
2021/04/17 09:19:48;;;;;;;5.28;2.30;;;;;;;19.51;49.71;102909.50;5045732;28;20119;-70
2021/04/17 09:25:03;;;;;;;5.38;1.65;;;;;;;19.39;50.33;102897.78;5063143;28;20036;-70
2021/04/17 09:27:32;;;;;;;6.63;1.80;;;;;;;19.46;50.05;102891.84;5069466;28;20043;-69
2021/04/17 09:30:10;;;;;;;5.53;1.77;;;;;;;19.45;50.06;102885.72;5062832;28;20566;-69
2021/04/17 09:32:40;;;;;;;4.35;1.70;;;;;;;19.46;49.78;102897.09;5067000;28;20063;-69
2021/04/17 09:35:18;;;;;;;4.45;1.73;;;;;;;19.45;49.76;102896.22;5065118;28;20035;-71
2021/04/17 09:37:59;;;;;;;3.33;2.15;;;;;;;19.46;49.89;102894.47;5046508;28;20027;-74
2021/04/17 09:40:36;;;;;;;3.97;1.65;;;;;;;19.42;49.65;102884.75;5041654;28;20378;-75
2021/04/17 09:43:04;;;;;;;4.07;1.55;;;;;;;19.30;49.74;102872.25;5069379;28;20032;-75
2021/04/17 09:45:32;;;;;;;2.47;1.33;;;;;;;19.39;49.65;102880.31;5038967;28;20035;-74
2021/04/17 09:47:59;;;;;;;5.45;2.20;;;;;;;19.31;49.77;102858.28;5071154;28;20033;-74
2021/04/17 09:50:26;;;;;;;4.43;1.90;;;;;;;19.44;49.58;102867.31;5063707;28;20475;-70
2021/04/17 09:52:52;;;;;;;4.35;1.75;;;;;;;19.42;49.67;102877.78;5070619;28;20032;-74
2021/04/17 09:55:18;;;;;;;4.22;1.90;;;;;;;19.34;49.88;102866.22;5052616;28;20437;-74
2021/04/17 09:57:47;;;;;;;2.17;1.52;;;;;;;19.35;49.68;102865.34;5061849;28;20021;-75
2021/04/17 10:00:13;;;;;;;4.13;1.92;;;;;;;19.33;49.71;102872.31;5072394;28;20035;-75
2021/04/17 10:02:48;;;;;;;5.65;2.10;;;;;;;19.32;49.77;102854.81;5043286;28;20085;-75
2021/04/17 10:05:15;;;;;;;4.82;1.77;;;;;;;19.34;49.75;102855.72;5068231;28;20040;-75
2021/04/17 10:07:43;;;;;;;6.38;1.67;;;;;;;19.34;49.84;102855.72;5067754;28;20037;-75
2021/04/17 10:10:10;;;;;;;3.85;1.85;;;;;;;19.37;49.73;102844.41;5049593;28;20057;-70
2021/04/17 10:12:51;;;;;;;5.03;1.63;;;;;;;19.35;49.71;102856.59;5051568;28;20051;-70
2021/04/17 10:15:16;;;;;;;4.85;1.92;;;;;;;19.33;49.70;102838.22;5067777;28;20419;-70
2021/04/17 10:17:42;;;;;;;3.33;1.48;;;;;;;19.26;49.56;102828.41;5054788;28;20028;-75
2021/04/17 10:20:09;;;;;;;3.72;1.65;;;;;;;19.28;49.74;102831.97;5045362;28;20035;-75
2021/04/17 10:22:34;;;;;;;3.97;1.60;;;;;;;19.24;49.61;102833.63;5035959;28;20078;-75
2021/04/17 10:25:00;;;;;;;5.72;1.75;;;;;;;19.25;49.54;102835.38;5055439;28;20036;-75
2021/04/17 10:27:26;;;;;;;4.43;1.80;;;;;;;19.22;49.57;102818.69;5055739;28;20044;-75
2021/04/17 10:29:53;;;;;;;4.75;1.83;;;;;;;19.25;49.45;102818.75;5039392;28;20036;-74
2021/04/17 10:32:22;;;;;;;5.30;1.77;;;;;;;19.24;49.42;102817.00;5068602;28;20033;-75
2021/04/17 10:34:51;;;;;;;2.67;1.40;;;;;;;19.23;49.27;102815.22;5053149;28;20035;-75
2021/04/17 10:37:23;;;;;;;3.10;1.48;;;;;;;19.24;49.25;102806.50;5073094;28;20374;-75
2021/04/17 10:40:10;;;;;;;3.47;1.23;;;;;;;19.17;49.33;102800.25;5072030;28;20108;-75
2021/04/17 10:42:48;;;;;;;2.40;1.40;;;;;;;19.22;49.15;102802.94;5059901;28;20024;-75
2021/04/17 10:45:16;;;;;;;3.40;1.55;;;;;;;19.05;49.34;102772.84;5065486;28;20032;-75
2021/04/17 10:47:41;;;;;;;4.60;2.03;;;;;;;19.15;49.09;102794.06;5068341;28;20033;-75
2021/04/17 10:50:20;;;;;;;4.28;1.63;;;;;;;19.19;49.18;102801.16;5054369;28;20031;-74
2021/04/17 10:53:07;;;;;;;3.15;1.23;;;;;;;19.16;49.02;102792.34;5063340;28;20035;-75
2021/04/17 10:55:44;;;;;;;3.13;1.30;;;;;;;19.12;49.08;102787.84;5072564;28;20028;-75
2021/04/17 10:58:21;;;;;;;3.85;1.33;;;;;;;19.09;49.15;102786.03;5055117;28;20074;-75
2021/04/17 11:00:56;;;;;;;4.22;1.83;;;;;;;19.15;49.13;102782.69;5062348;28;20028;-75
2021/04/17 11:03:23;;;;;;;2.30;1.40;;;;;;;19.15;48.99;102788.81;5054789;28;20021;-75
2021/04/17 11:05:49;;;;;;;2.85;1.67;;;;;;;19.16;48.87;102792.34;5073454;28;20035;-75
2021/04/17 11:08:21;;;;;;;1.98;1.10;;;;;;;19.10;49.00;102782.56;5054695;28;20036;-75
2021/04/17 11:10:47;;;;;;;2.10;1.15;;;;;;;19.14;48.73;102781.81;5070852;28;20040;-75
2021/04/17 11:13:30;;;;;;;3.53;1.50;;;;;;;19.10;48.76;102772.09;5038918;28;20036;-75
2021/04/17 11:15:56;;;;;;;2.00;1.55;;;;;;;19.11;48.75;102780.84;5036078;28;20017;-75
2021/04/17 11:18:21;;;;;;;2.22;1.30;;;;;;;19.15;48.91;102780.06;5046983;28;20051;-75
2021/04/17 11:20:58;;;;;;;2.65;1.05;;;;;;;19.13;48.92;102772.16;5069903;28;20032;-75
2021/04/17 11:23:40;;;;;;;4.00;1.30;;;;;;;19.13;48.83;102776.53;5040505;28;20035;-75
2021/04/17 11:26:29;;;;;;;1.92;1.10;;;;;;;19.12;48.86;102764.25;5068313;28;20402;-76
2021/04/17 11:28:58;;;;;;;2.03;1.40;;;;;;;19.04;48.65;102750.97;5053271;28;20475;-75
2021/04/17 11:31:31;;;;;;;2.60;1.50;;;;;;;19.07;48.83;102758.03;5066367;28;20483;-75
2021/04/17 11:33:59;;;;;;;;;;;;;;;19.13;48.73;102766.91;5072725;28;20060;-75
2021/04/17 11:36:25;;;;;;;1.92;0.90;;;;;;;19.08;48.80;102747.59;5073153;28;19913;-75